Indianápolis, IN

10:56 PM EST en Enero 30, 2015 (GMT -0500)
North Fountain Square | Change Station
CLOSE
Current Station
Estación meteorológica personal
Location: Indianapolis, IN
Altura: 738 ft
Estaciones meteorológicas cercanas
Aviso en curso: Winter Storm Watch

Alt 738 ft 39.76 °N, 86.14 °W | Updated 17 seconds ago

Despejado
Despejado
22.6 ° F
Sensación térmica 23 ° F
N
0.0
Viento Variable Viento desde SSO
Gusts 0.0 mph

Hoy
Alta -- | Baja -- ° F
--% Posibilidad de precipitaciones
Ayer
Alta -- | Baja -- ° F
Precip. -- pul
7:54 AM 6:01 PM
Gibosa creciente, 87% visible
Presión 30.46 pul
Visibilidad 10.0 Millas
Nubes Despejado
Vientos helados 23 ° F
Punto de rocío 14 ° F
Humedad 70%
Precipitaciones 0.00 pul
Espesor de la nieve No disponible.
UV 0 de una escala de 12
Polen .10 de una escala de 12
Calidad del aire No disponible.
Flu Activity No disponible.
METAR KIND 310254Z 00000KT 10SM CLR M04/M09 A3043 RMK AO2 SLP314 T10441089 58005

More Conditions Fewer Conditions

Presión 30.46 pul
Visibilidad 10.0 Millas
Nubes Despejado
Vientos helados 23 ° F
Punto de rocío 14 ° F
Humedad 70%
Precipitaciones 0.00 pul
Espesor de la nieve No disponible.
UV 0 de una escala de 12
Polen .10 de una escala de 12
Calidad del aire No disponible.
Flu Activity No disponible.
METAR KIND 310254Z 00000KT 10SM CLR M04/M09 A3043 RMK AO2 SLP314 T10441089 58005

More Conditions Fewer Conditions

10-Day Weather Forecast

Almanac

Astronomía

Jan. 30, 2015 Salida Puesta
Hora real
Crepúsculo civil
Crepúsculo náutico
Crepúsculo astronómico
Luna
Horas de luz
Horas de luz
Tomorrow will be .
, % of the Moon is Illuminated

Extremos de hoy

Máximos del estado Bajos del estado

Community

WunderPhotos

Upload Photos

1,791,994 ¡fotos cargadas!

WunderBlogs® & News

Nearby

Calidad del aire

  Calidad del aire Índice AQ Contaminante
Not available.

Grosos de nieve

Estación Profundido Altura

Actividad de terremotos

Ciudad Distance Mag. Tiempo y dato
Magnitud mínima muestra es 2,5.

Temperaturas de aguas costeras

Lugar Temperatura

Estaciones meteorológicas cercanas